Time;durP1;ratioP1;P1;durP2;ratioP2;P2;SDS_P1;SDS_P2;PMS_P1;PMS_P2;Temp;Humidity;BMP_temperature;BMP_pressure;BME280_temperature;BME280_humidity;BME280_pressure;Samples;Min_cycle;Max_cycle;Signal;HPM_P1;HPM_P2
2021/04/18 00:00:07;;;;;;;46.03;26.83;;;8.00;99.90;;;;;;5095589;28;20315;-68
2021/04/18 00:02:34;;;;;;;45.13;25.83;;;8.00;99.90;;;;;;5084549;28;20193;-68
2021/04/18 00:05:01;;;;;;;42.10;25.43;;;8.00;99.90;;;;;;5078514;28;20209;-68
2021/04/18 00:07:27;;;;;;;39.80;23.67;;;7.90;99.90;;;;;;5078924;28;20242;-68
2021/04/18 00:09:55;;;;;;;45.07;26.37;;;7.90;99.90;;;;;;5087458;28;20563;-68
2021/04/18 00:12:21;;;;;;;48.17;25.77;;;7.90;99.90;;;;;;5093041;28;20259;-69
2021/04/18 00:14:48;;;;;;;51.33;27.07;;;7.90;99.90;;;;;;5087867;28;20289;-69
2021/04/18 00:17:14;;;;;;;47.13;26.23;;;7.90;99.90;;;;;;5084038;28;20213;-67
2021/04/18 00:19:41;;;;;;;48.60;26.17;;;7.90;99.90;;;;;;5090900;28;20216;-68
2021/04/18 00:22:08;;;;;;;50.93;25.87;;;7.90;99.90;;;;;;5084665;28;20328;-69
2021/04/18 00:24:34;;;;;;;44.93;25.13;;;7.90;99.90;;;;;;5083865;28;20197;-67
2021/04/18 00:27:00;;;;;;;48.50;26.47;;;7.90;99.90;;;;;;5084614;28;20236;-70
2021/04/18 00:29:27;;;;;;;43.83;24.10;;;8.00;99.90;;;;;;5084536;28;20243;-68
2021/04/18 00:31:53;;;;;;;45.90;23.23;;;8.00;99.90;;;;;;5088298;28;20288;-67
2021/04/18 00:34:20;;;;;;;48.77;25.37;;;8.00;99.90;;;;;;5085344;28;20600;-68
2021/04/18 00:36:47;;;;;;;46.70;24.70;;;8.00;99.90;;;;;;5082575;28;20299;-67
2021/04/18 00:39:13;;;;;;;44.33;21.83;;;8.00;99.90;;;;;;5084482;28;20632;-68
2021/04/18 00:41:40;;;;;;;38.50;20.70;;;8.00;99.90;;;;;;5080968;28;20288;-67
2021/04/18 00:44:06;;;;;;;43.60;22.53;;;7.90;99.90;;;;;;5088350;28;20200;-67
2021/04/18 00:46:33;;;;;;;42.13;21.73;;;7.80;99.90;;;;;;5083711;28;20555;-68
2021/04/18 00:48:59;;;;;;;48.10;23.60;;;7.80;99.90;;;;;;5079982;28;20655;-69
2021/04/18 00:51:26;;;;;;;47.40;23.50;;;7.80;99.90;;;;;;5084456;28;20304;-67
2021/04/18 00:53:53;;;;;;;41.07;20.80;;;7.80;99.90;;;;;;5093959;28;20208;-68
2021/04/18 00:56:19;;;;;;;41.17;20.80;;;7.80;99.90;;;;;;5085730;28;20291;-67
2021/04/18 00:58:47;;;;;;;42.17;21.00;;;7.80;99.90;;;;;;5084121;28;20288;-68
2021/04/18 01:01:13;;;;;;;47.47;22.87;;;7.70;99.90;;;;;;5093310;28;20753;-70
2021/04/18 01:03:40;;;;;;;42.20;22.00;;;7.70;99.90;;;;;;5080134;28;20240;-71
2021/04/18 01:06:07;;;;;;;50.93;22.10;;;7.70;99.90;;;;;;5075256;28;20209;-70
2021/04/18 01:08:33;;;;;;;48.40;22.57;;;7.70;99.90;;;;;;5083257;28;20627;-70
2021/04/18 01:11:01;;;;;;;57.00;23.33;;;7.60;99.90;;;;;;5079406;28;20704;-71
2021/04/18 01:13:27;;;;;;;52.23;24.00;;;7.60;99.90;;;;;;5083999;28;20264;-70
2021/04/18 01:15:54;;;;;;;48.33;22.57;;;7.60;99.90;;;;;;5081896;28;20288;-69
2021/04/18 01:18:20;;;;;;;49.47;22.47;;;7.60;99.90;;;;;;5087556;28;20242;-70
2021/04/18 01:20:47;;;;;;;49.00;23.07;;;7.60;99.90;;;;;;5092245;28;20217;-70
2021/04/18 01:23:14;;;;;;;48.97;22.70;;;7.60;99.90;;;;;;5089905;28;20209;-71
2021/04/18 01:25:42;;;;;;;49.03;22.97;;;7.70;99.90;;;;;;5085898;28;20581;-70
2021/04/18 01:28:09;;;;;;;44.53;21.67;;;7.70;99.90;;;;;;5089881;28;20237;-71
2021/04/18 01:30:35;;;;;;;42.37;21.13;;;7.70;99.90;;;;;;5085214;28;20209;-70
2021/04/18 01:33:03;;;;;;;45.00;21.50;;;7.70;99.90;;;;;;5075613;28;20202;-70
2021/04/18 01:35:30;;;;;;;48.97;21.80;;;7.60;99.90;;;;;;5084148;28;20303;-69
2021/04/18 01:37:57;;;;;;;40.73;20.53;;;7.70;99.90;;;;;;5083219;28;20238;-70
2021/04/18 01:40:25;;;;;;;43.97;22.00;;;7.70;99.90;;;;;;5081140;28;20228;-70
2021/04/18 01:42:52;;;;;;;47.33;22.77;;;7.60;99.90;;;;;;5083617;28;20204;-70
2021/04/18 01:45:19;;;;;;;45.50;21.73;;;7.60;99.90;;;;;;5088410;28;20625;-69
2021/04/18 01:47:47;;;;;;;47.90;23.13;;;7.60;99.90;;;;;;5085491;28;20243;-69
2021/04/18 01:50:17;;;;;;;45.97;21.87;;;7.60;99.90;;;;;;5083339;28;20291;-69
2021/04/18 01:52:44;;;;;;;45.03;22.20;;;7.70;99.90;;;;;;5085187;28;20275;-70
2021/04/18 01:55:12;;;;;;;43.90;21.93;;;7.70;99.90;;;;;;5077789;28;20197;-68
2021/04/18 01:57:39;;;;;;;53.37;23.73;;;7.70;99.90;;;;;;5077420;28;20213;-70
2021/04/18 02:00:08;;;;;;;38.33;20.77;;;7.70;99.90;;;;;;5084637;28;20228;-70
2021/04/18 02:02:34;;;;;;;44.63;22.10;;;7.70;99.90;;;;;;5079685;28;20304;-69
2021/04/18 02:05:00;;;;;;;39.13;21.13;;;7.80;99.90;;;;;;5067331;28;20236;-70
2021/04/18 02:07:27;;;;;;;39.27;22.10;;;7.70;99.90;;;;;;5077428;28;20210;-70
2021/04/18 02:09:53;;;;;;;50.90;22.50;;;7.80;99.90;;;;;;5083966;28;20208;-72
2021/04/18 02:12:19;;;;;;;43.10;20.90;;;7.80;99.90;;;;;;5089798;28;20205;-69
2021/04/18 02:14:47;;;;;;;41.37;21.77;;;7.70;99.90;;;;;;5083895;28;20231;-69
2021/04/18 02:17:13;;;;;;;40.17;21.20;;;7.80;99.90;;;;;;5079012;28;20323;-70
2021/04/18 02:19:40;;;;;;;36.70;20.60;;;7.80;99.90;;;;;;5085578;28;20220;-71
2021/04/18 02:22:06;;;;;;;36.70;19.47;;;7.80;99.90;;;;;;5083786;28;20215;-70
2021/04/18 02:24:32;;;;;;;38.47;20.53;;;7.80;99.90;;;;;;5080147;28;20334;-70
2021/04/18 02:26:59;;;;;;;39.50;20.20;;;7.70;99.90;;;;;;5082791;28;20327;-70
2021/04/18 02:29:25;;;;;;;40.03;20.83;;;7.70;99.90;;;;;;5086502;28;20288;-70
2021/04/18 02:31:52;;;;;;;41.60;21.30;;;7.60;99.90;;;;;;5080372;28;20287;-68
2021/04/18 02:34:19;;;;;;;37.50;21.50;;;7.60;99.90;;;;;;5091053;28;20295;-71
2021/04/18 02:36:45;;;;;;;43.90;21.77;;;7.50;99.90;;;;;;5083572;28;20703;-69
2021/04/18 02:39:11;;;;;;;45.77;22.13;;;7.50;99.90;;;;;;5080759;28;20221;-69
2021/04/18 02:41:38;;;;;;;42.63;22.37;;;7.50;99.90;;;;;;5086101;28;20835;-69
2021/04/18 02:44:04;;;;;;;44.07;21.37;;;7.50;99.90;;;;;;5092090;28;20342;-70
2021/04/18 02:46:31;;;;;;;40.67;22.60;;;7.50;99.90;;;;;;5078938;28;20211;-69
2021/04/18 02:48:58;;;;;;;45.67;22.90;;;7.50;99.90;;;;;;5085273;28;20204;-70
2021/04/18 02:51:24;;;;;;;45.33;22.93;;;7.60;99.90;;;;;;5089542;28;20688;-70
2021/04/18 02:53:51;;;;;;;46.17;23.70;;;7.60;99.90;;;;;;5085264;28;20239;-70
2021/04/18 02:56:17;;;;;;;47.13;23.80;;;7.60;99.90;;;;;;5083186;28;20213;-69
2021/04/18 02:58:43;;;;;;;45.60;22.77;;;7.60;99.90;;;;;;5088164;28;20220;-69
2021/04/18 03:01:09;;;;;;;43.63;22.00;;;7.70;99.90;;;;;;5081699;28;20212;-69
2021/04/18 03:03:36;;;;;;;41.17;22.70;;;7.70;99.90;;;;;;5086751;28;20595;-70
2021/04/18 03:06:03;;;;;;;44.43;22.77;;;7.70;99.90;;;;;;5075827;28;20209;-70
2021/04/18 03:08:30;;;;;;;50.20;24.10;;;7.80;99.90;;;;;;5084309;28;20209;-69
2021/04/18 03:10:56;;;;;;;44.50;22.40;;;7.70;99.90;;;;;;5075549;28;20209;-69
2021/04/18 03:13:23;;;;;;;48.53;22.80;;;7.70;99.90;;;;;;5083349;28;20561;-69
2021/04/18 03:15:49;;;;;;;43.67;22.70;;;7.70;99.90;;;;;;5077579;28;20205;-69
2021/04/18 03:18:15;;;;;;;49.10;22.77;;;7.70;99.90;;;;;;5084908;28;20299;-70
2021/04/18 03:20:42;;;;;;;41.60;21.87;;;7.60;99.90;;;;;;5090029;28;20208;-70
2021/04/18 03:23:09;;;;;;;51.73;23.97;;;7.70;99.90;;;;;;5082536;28;20227;-70
2021/04/18 03:25:36;;;;;;;48.10;23.83;;;7.60;99.90;;;;;;5086894;28;20205;-70
2021/04/18 03:28:03;;;;;;;44.27;22.67;;;7.60;99.90;;;;;;5073059;28;20316;-70
2021/04/18 03:30:31;;;;;;;51.27;25.97;;;7.50;99.90;;;;;;5084088;28;20208;-70
2021/04/18 03:32:58;;;;;;;50.73;23.77;;;7.50;99.90;;;;;;5087040;28;20201;-70
2021/04/18 03:35:24;;;;;;;45.33;24.27;;;7.50;99.90;;;;;;5084832;28;20209;-71
2021/04/18 03:37:51;;;;;;;44.40;23.03;;;7.40;99.90;;;;;;5078950;28;20599;-70
2021/04/18 03:40:19;;;;;;;47.17;24.37;;;7.40;99.90;;;;;;5082642;28;20584;-70
2021/04/18 03:42:45;;;;;;;42.73;21.60;;;7.40;99.90;;;;;;5083944;28;20672;-70
2021/04/18 03:45:12;;;;;;;44.57;22.70;;;7.40;99.90;;;;;;5086807;28;20241;-71
2021/04/18 03:47:39;;;;;;;38.43;21.30;;;7.40;99.90;;;;;;5083496;28;20204;-71
2021/04/18 03:50:07;;;;;;;39.50;20.83;;;7.40;99.90;;;;;;5087212;28;20208;-70
2021/04/18 03:52:33;;;;;;;38.27;20.93;;;7.40;99.90;;;;;;5087022;28;20219;-69
2021/04/18 03:54:59;;;;;;;40.77;22.27;;;7.40;99.90;;;;;;5087586;28;20212;-70
2021/04/18 03:57:27;;;;;;;38.03;19.80;;;7.40;99.90;;;;;;5080334;28;20653;-71
2021/04/18 03:59:53;;;;;;;37.13;18.80;;;7.40;99.90;;;;;;5078574;28;20308;-69
2021/04/18 04:02:19;;;;;;;38.80;19.70;;;7.40;99.90;;;;;;5080897;28;20296;-70
2021/04/18 04:04:45;;;;;;;46.70;21.47;;;7.40;99.90;;;;;;5072405;28;20297;-70
2021/04/18 04:07:12;;;;;;;44.83;21.27;;;7.30;99.90;;;;;;5079566;28;20326;-71
2021/04/18 04:09:38;;;;;;;41.37;20.87;;;7.30;99.90;;;;;;5089862;28;20208;-70
2021/04/18 04:12:06;;;;;;;41.47;21.70;;;7.30;99.90;;;;;;5083279;28;20658;-69
2021/04/18 04:14:33;;;;;;;42.57;21.93;;;7.30;99.90;;;;;;5079256;28;20228;-70
2021/04/18 04:17:00;;;;;;;44.57;22.20;;;7.30;99.90;;;;;;5072078;28;20255;-69
2021/04/18 04:19:26;;;;;;;48.43;23.00;;;7.40;99.90;;;;;;5080936;28;20233;-70
2021/04/18 04:21:52;;;;;;;48.40;24.63;;;7.40;99.90;;;;;;5087225;28;20208;-71
2021/04/18 04:24:19;;;;;;;42.93;22.20;;;7.40;99.90;;;;;;5089443;28;20665;-69
2021/04/18 04:26:45;;;;;;;42.73;22.27;;;7.50;99.90;;;;;;5086236;28;20269;-70
2021/04/18 04:29:11;;;;;;;42.07;22.23;;;7.60;99.90;;;;;;5086030;28;20192;-69
2021/04/18 04:31:38;;;;;;;41.43;22.67;;;7.60;99.90;;;;;;5083225;28;20204;-70
2021/04/18 04:34:07;;;;;;;48.53;22.77;;;7.60;99.90;;;;;;5086964;28;20211;-70
2021/04/18 04:36:33;;;;;;;39.63;21.10;;;7.60;99.90;;;;;;5082012;28;20214;-70
2021/04/18 04:38:59;;;;;;;40.77;19.77;;;7.60;99.90;;;;;;5086306;28;20221;-70
2021/04/18 04:41:26;;;;;;;39.40;21.00;;;7.60;99.90;;;;;;5083788;28;20209;-70
2021/04/18 04:43:52;;;;;;;38.03;21.37;;;7.60;99.90;;;;;;5088869;28;20318;-69
2021/04/18 04:46:18;;;;;;;36.37;19.57;;;7.60;99.90;;;;;;5088800;28;20621;-69
2021/04/18 04:48:46;;;;;;;39.87;19.60;;;7.60;99.90;;;;;;5088190;28;20295;-70
2021/04/18 04:51:12;;;;;;;43.03;20.77;;;7.50;99.90;;;;;;5089634;28;20245;-70
2021/04/18 04:53:38;;;;;;;44.57;22.33;;;7.60;99.90;;;;;;5082472;28;20575;-70
2021/04/18 04:56:05;;;;;;;47.23;25.43;;;7.60;99.90;;;;;;5084707;28;20236;-70
2021/04/18 04:58:32;;;;;;;45.40;21.97;;;7.70;99.90;;;;;;5081828;28;20198;-70
2021/04/18 05:00:58;;;;;;;39.83;21.33;;;7.70;99.90;;;;;;5080722;28;20204;-70
2021/04/18 05:03:27;;;;;;;47.00;22.60;;;7.70;99.90;;;;;;5084918;28;20223;-70
2021/04/18 05:05:55;;;;;;;45.60;22.23;;;7.70;99.90;;;;;;5081104;28;20235;-71
2021/04/18 05:08:21;;;;;;;42.07;20.77;;;7.80;99.90;;;;;;5083576;28;20205;-70
2021/04/18 05:10:47;;;;;;;41.90;20.50;;;7.70;99.90;;;;;;5084321;28;20193;-71
2021/04/18 05:13:14;;;;;;;42.77;22.17;;;7.70;99.90;;;;;;5090146;28;20215;-71
2021/04/18 05:15:40;;;;;;;39.90;20.70;;;7.80;99.90;;;;;;5074386;28;20205;-70
2021/04/18 05:18:07;;;;;;;41.27;19.73;;;7.80;99.90;;;;;;5085222;28;20254;-70
2021/04/18 05:20:33;;;;;;;39.17;20.60;;;7.80;99.90;;;;;;5083678;28;20581;-70
2021/04/18 05:23:00;;;;;;;40.87;20.73;;;7.80;99.90;;;;;;5087462;28;20300;-69
2021/04/18 05:25:27;;;;;;;40.33;21.10;;;7.90;99.90;;;;;;5081308;28;20259;-70
2021/04/18 05:27:53;;;;;;;40.10;20.57;;;8.00;99.90;;;;;;5084611;28;20769;-69
2021/04/18 05:30:21;;;;;;;40.37;20.23;;;8.00;99.90;;;;;;5083561;28;20234;-70
2021/04/18 05:32:47;;;;;;;38.13;20.83;;;8.00;99.90;;;;;;5084125;28;20639;-70
2021/04/18 05:35:14;;;;;;;43.77;21.50;;;8.10;99.90;;;;;;5089022;28;20228;-69
2021/04/18 05:37:40;;;;;;;45.90;22.83;;;8.10;99.90;;;;;;5082705;28;20201;-70
2021/04/18 05:40:09;;;;;;;42.23;22.07;;;8.10;99.90;;;;;;5083233;28;20259;-71
2021/04/18 05:42:35;;;;;;;44.37;22.23;;;8.10;99.90;;;;;;5086868;28;20213;-71
2021/04/18 05:45:02;;;;;;;44.67;22.57;;;8.20;99.90;;;;;;5092980;28;20291;-71
2021/04/18 05:47:28;;;;;;;48.87;23.80;;;8.30;99.90;;;;;;5074432;28;20730;-71
2021/04/18 05:49:55;;;;;;;41.63;20.73;;;8.30;99.90;;;;;;5073894;28;20229;-71
2021/04/18 05:52:21;;;;;;;46.23;23.73;;;8.30;99.90;;;;;;5074105;28;20209;-69
2021/04/18 05:54:48;;;;;;;43.83;22.17;;;8.30;99.90;;;;;;5071045;28;20205;-70
2021/04/18 05:57:15;;;;;;;39.23;20.70;;;8.30;99.90;;;;;;5074135;28;20209;-70
2021/04/18 05:59:41;;;;;;;43.50;21.37;;;8.30;99.90;;;;;;5073361;28;20312;-72
2021/04/18 06:02:08;;;;;;;45.07;21.53;;;8.20;99.90;;;;;;5074121;28;20217;-71
2021/04/18 06:04:34;;;;;;;39.40;20.13;;;8.20;99.90;;;;;;5071007;28;20206;-71
2021/04/18 06:07:01;;;;;;;45.13;20.63;;;8.20;99.90;;;;;;5073140;28;20296;-71
2021/04/18 06:09:28;;;;;;;39.40;20.03;;;8.20;99.90;;;;;;5068197;28;20198;-73
2021/04/18 06:11:54;;;;;;;44.90;21.63;;;8.20;99.90;;;;;;5074811;28;20599;-72
2021/04/18 06:14:21;;;;;;;43.90;21.67;;;8.20;99.90;;;;;;5072894;28;20232;-71
2021/04/18 06:16:49;;;;;;;41.50;19.47;;;8.20;99.90;;;;;;5060090;28;20202;-71
2021/04/18 06:19:16;;;;;;;44.77;21.93;;;8.20;99.90;;;;;;5070439;28;20217;-70
2021/04/18 06:21:42;;;;;;;45.13;22.00;;;8.20;99.90;;;;;;5073429;28;20205;-71
2021/04/18 06:24:09;;;;;;;43.70;20.67;;;8.20;99.90;;;;;;5073330;28;20209;-70
2021/04/18 06:26:36;;;;;;;36.77;19.33;;;8.30;99.90;;;;;;5059098;28;20214;-70
2021/04/18 06:29:02;;;;;;;37.70;19.07;;;8.30;99.90;;;;;;5070164;28;20642;-68
2021/04/18 06:31:30;;;;;;;40.10;18.77;;;8.40;99.90;;;;;;5069438;28;20205;-71
2021/04/18 06:33:57;;;;;;;36.13;18.10;;;8.40;99.90;;;;;;5077583;28;20727;-70
2021/04/18 06:36:23;;;;;;;40.33;19.07;;;8.50;99.90;;;;;;5073055;28;20209;-71
2021/04/18 06:38:49;;;;;;;38.20;18.97;;;8.50;99.90;;;;;;5068970;28;20283;-70
2021/04/18 06:41:21;;;;;;;39.57;19.57;;;8.60;99.90;;;;;;5074963;28;20300;-73
2021/04/18 06:43:48;;;;;;;31.10;17.70;;;8.60;99.90;;;;;;5070918;28;20201;-71
2021/04/18 06:46:16;;;;;;;29.10;16.97;;;8.70;99.90;;;;;;5072110;28;20657;-70
2021/04/18 06:48:44;;;;;;;36.10;19.43;;;8.70;99.90;;;;;;5071594;28;20209;-71
2021/04/18 06:51:11;;;;;;;33.03;19.13;;;8.90;99.90;;;;;;5072304;28;20197;-71
2021/04/18 06:53:37;;;;;;;32.83;18.20;;;9.00;99.90;;;;;;5075402;28;20220;-70
2021/04/18 06:56:05;;;;;;;36.70;19.57;;;9.30;99.90;;;;;;5071013;28;20689;-70
2021/04/18 06:58:32;;;;;;;26.50;15.63;;;9.50;99.90;;;;;;5077434;28;20288;-72
2021/04/18 07:00:59;;;;;;;26.20;16.07;;;9.60;99.90;;;;;;5065198;28;20305;-70
2021/04/18 07:03:26;;;;;;;29.80;16.33;;;9.70;99.90;;;;;;5070025;28;20773;-70
2021/04/18 07:05:56;;;;;;;27.10;16.83;;;9.70;99.90;;;;;;5066855;28;20205;-70
2021/04/18 07:08:25;;;;;;;29.13;16.80;;;9.70;99.90;;;;;;5071016;28;20205;-69
2021/04/18 07:10:52;;;;;;;26.47;16.60;;;9.80;99.90;;;;;;5070738;28;20213;-69
2021/04/18 07:13:19;;;;;;;29.53;17.13;;;9.80;99.90;;;;;;5072023;28;20648;-68
2021/04/18 07:15:48;;;;;;;24.97;16.07;;;10.10;99.90;;;;;;5072023;28;20677;-71
2021/04/18 07:18:36;;;;;;;25.97;16.83;;;10.20;99.90;;;;;;5059459;28;20205;-70
2021/04/18 07:21:03;;;;;;;28.67;16.30;;;10.30;99.90;;;;;;5072434;28;20201;-71
2021/04/18 07:23:33;;;;;;;31.73;18.33;;;10.50;99.90;;;;;;5068944;28;20569;-70
2021/04/18 07:26:21;;;;;;;29.33;18.03;;;10.50;99.90;;;;;;5070513;28;20213;-70
2021/04/18 07:28:49;;;;;;;32.57;18.90;;;10.50;99.90;;;;;;5082311;28;20263;-69
2021/04/18 07:31:33;;;;;;;27.87;17.27;;;10.50;99.90;;;;;;5071216;28;20212;-70
2021/04/18 07:34:05;;;;;;;26.67;16.67;;;10.70;99.90;;;;;;5061934;28;20221;-70
2021/04/18 07:36:33;;;;;;;28.40;17.10;;;10.80;99.90;;;;;;5071700;28;20689;-72
2021/04/18 07:38:59;;;;;;;24.53;15.87;;;11.10;99.90;;;;;;5069210;28;20221;-73
2021/04/18 07:41:26;;;;;;;25.70;15.93;;;11.20;99.90;;;;;;5072135;28;20210;-72
2021/04/18 07:43:53;;;;;;;28.13;17.73;;;11.30;99.90;;;;;;5068511;28;20217;-71
2021/04/18 07:46:20;;;;;;;21.57;15.07;;;11.40;99.90;;;;;;5076928;28;20201;-71
2021/04/18 07:48:48;;;;;;;28.33;16.40;;;11.50;99.90;;;;;;5071544;28;20205;-70
2021/04/18 07:51:14;;;;;;;24.47;15.47;;;11.70;99.90;;;;;;5071951;28;20205;-71
2021/04/18 07:53:42;;;;;;;24.20;16.40;;;11.80;99.90;;;;;;5072045;28;20254;-71
2021/04/18 07:56:09;;;;;;;24.70;16.17;;;11.90;99.90;;;;;;5076597;28;20730;-69
2021/04/18 07:58:38;;;;;;;27.93;16.70;;;12.10;99.90;;;;;;5071796;28;20228;-72
2021/04/18 08:01:05;;;;;;;25.20;16.27;;;12.20;99.90;;;;;;5083409;28;20221;-70
2021/04/18 08:03:32;;;;;;;22.70;15.07;;;12.30;99.90;;;;;;5072107;28;20707;-71
2021/04/18 08:05:59;;;;;;;24.33;16.87;;;12.50;99.90;;;;;;5070995;28;20637;-72
2021/04/18 08:08:43;;;;;;;22.23;14.83;;;12.70;99.90;;;;;;5075863;28;20335;-70
2021/04/18 08:11:11;;;;;;;24.10;15.17;;;12.70;99.90;;;;;;5078546;28;20201;-73
2021/04/18 08:13:39;;;;;;;21.60;14.77;;;12.70;99.90;;;;;;5074797;28;20693;-71
2021/04/18 08:16:06;;;;;;;23.43;15.83;;;12.70;99.90;;;;;;5074920;28;20209;-72
2021/04/18 08:18:35;;;;;;;24.93;15.67;;;12.80;99.90;;;;;;5075258;28;20201;-70
2021/04/18 08:21:04;;;;;;;21.77;15.27;;;12.90;99.90;;;;;;5075363;28;20224;-70
2021/04/18 08:23:40;;;;;;;25.80;14.60;;;13.00;99.90;;;;;;5075124;28;20209;-70
2021/04/18 08:26:10;;;;;;;21.97;15.57;;;13.20;99.90;;;;;;5074936;28;20213;-70
2021/04/18 08:29:07;;;;;;;21.00;14.80;;;13.30;99.90;;;;;;5074564;28;20244;-70
2021/04/18 08:32:10;;;;;;;20.33;13.73;;;13.40;99.90;;;;;;5075053;28;20621;-71
2021/04/18 08:34:39;;;;;;;21.33;14.00;;;13.60;99.90;;;;;;5073657;28;20642;-69
2021/04/18 08:37:15;;;;;;;20.97;14.30;;;13.70;99.90;;;;;;5078024;28;20205;-70
2021/04/18 08:39:41;;;;;;;20.17;13.83;;;13.70;99.90;;;;;;5088014;28;20284;-69
2021/04/18 08:42:10;;;;;;;21.00;13.87;;;13.70;99.90;;;;;;5090028;28;20614;-70
2021/04/18 08:44:45;;;;;;;19.30;13.43;;;14.00;99.90;;;;;;5082458;28;20209;-71
2021/04/18 08:47:14;;;;;;;19.60;13.13;;;14.20;99.90;;;;;;5082684;28;20208;-70
2021/04/18 08:49:43;;;;;;;18.60;12.47;;;14.50;99.90;;;;;;5089229;28;20650;-70
2021/04/18 08:52:11;;;;;;;18.53;12.33;;;14.80;99.90;;;;;;5086786;28;20201;-70
2021/04/18 08:54:39;;;;;;;19.10;13.27;;;15.00;99.90;;;;;;5083946;28;20727;-70
2021/04/18 08:57:10;;;;;;;15.57;11.40;;;15.10;99.90;;;;;;5082138;28;20654;-69
2021/04/18 08:59:37;;;;;;;16.23;11.27;;;15.10;99.90;;;;;;5084745;28;20209;-69
2021/04/18 09:02:05;;;;;;;17.43;12.00;;;15.00;99.90;;;;;;5084261;28;20202;-71
2021/04/18 09:04:33;;;;;;;16.57;12.23;;;14.90;99.90;;;;;;5075781;28;20316;-70
2021/04/18 09:07:00;;;;;;;16.97;12.03;;;14.90;99.90;;;;;;5081239;28;20606;-69
2021/04/18 09:09:28;;;;;;;15.17;11.40;;;14.90;99.90;;;;;;5084993;28;20676;-70
2021/04/18 09:11:55;;;;;;;14.13;11.57;;;14.90;99.90;;;;;;5082315;28;20733;-71
2021/04/18 09:14:26;;;;;;;15.07;11.63;;;15.10;99.90;;;;;;5086212;28;20278;-70
2021/04/18 09:16:53;;;;;;;15.90;11.80;;;15.20;99.90;;;;;;5087060;28;20653;-70
2021/04/18 09:19:26;;;;;;;15.90;12.30;;;15.30;99.90;;;;;;5085498;28;20224;-70
2021/04/18 09:22:04;;;;;;;15.17;11.57;;;15.50;99.90;;;;;;5084587;28;20830;-70
2021/04/18 09:24:31;;;;;;;15.87;11.30;;;15.60;99.90;;;;;;5089868;28;20301;-70
2021/04/18 09:27:00;;;;;;;15.10;11.50;;;15.80;99.90;;;;;;5091675;28;20715;-71
2021/04/18 09:29:28;;;;;;;13.93;11.10;;;15.80;99.90;;;;;;5083034;28;20255;-71
2021/04/18 09:32:02;;;;;;;13.93;10.60;;;15.90;99.90;;;;;;5084898;28;20576;-71
2021/04/18 09:34:28;;;;;;;13.80;11.13;;;16.10;99.90;;;;;;5090338;28;20209;-71
2021/04/18 09:36:57;;;;;;;13.00;10.43;;;16.20;99.90;;;;;;5080180;28;20270;-71
2021/04/18 09:39:27;;;;;;;12.77;10.77;;;16.40;99.90;;;;;;5078882;28;20240;-71
2021/04/18 09:41:55;;;;;;;13.80;10.47;;;16.50;98.60;;;;;;5075903;28;20212;-69
2021/04/18 09:44:31;;;;;;;13.07;10.20;;;16.80;98.80;;;;;;5075677;28;20266;-70
2021/04/18 09:47:06;;;;;;;13.73;10.83;;;16.80;96.80;;;;;;5073126;28;20582;-69
2021/04/18 09:49:50;;;;;;;12.23;9.90;;;16.90;96.80;;;;;;5071754;28;20205;-70
2021/04/18 09:52:31;;;;;;;13.43;10.43;;;17.10;96.10;;;;;;5060982;28;20200;-70
2021/04/18 09:55:23;;;;;;;13.00;10.50;;;17.20;94.30;;;;;;5073112;28;20647;-70
2021/04/18 09:57:52;;;;;;;12.60;9.30;;;17.50;94.00;;;;;;5058704;28;20209;-70
2021/04/18 10:00:22;;;;;;;12.93;9.07;;;17.70;91.30;;;;;;5073323;28;20229;-70
2021/04/18 10:03:07;;;;;;;12.17;9.77;;;17.90;91.80;;;;;;5073664;28;20209;-70
2021/04/18 10:05:35;;;;;;;12.00;9.57;;;17.90;91.90;;;;;;5073330;28;20211;-70
2021/04/18 10:08:20;;;;;;;11.33;9.03;;;18.20;91.80;;;;;;5072399;28;20232;-70
2021/04/18 10:10:49;;;;;;;13.13;10.03;;;18.40;87.80;;;;;;5071224;28;20205;-71
2021/04/18 10:13:16;;;;;;;13.17;9.97;;;18.40;85.40;;;;;;5073453;28;20635;-72
2021/04/18 10:15:54;;;;;;;11.67;9.60;;;18.50;90.30;;;;;;5072929;28;20205;-72
2021/04/18 10:18:21;;;;;;;12.87;10.20;;;18.70;87.30;;;;;;5070026;28;20296;-73
2021/04/18 10:20:48;;;;;;;15.40;10.30;;;18.70;84.20;;;;;;5068480;28;20221;-72
2021/04/18 10:23:14;;;;;;;11.63;9.57;;;18.80;86.60;;;;;;5063419;28;20201;-72
2021/04/18 10:25:41;;;;;;;11.07;9.50;;;19.20;81.60;;;;;;5072137;28;20210;-71
2021/04/18 10:28:09;;;;;;;12.40;9.82;;;19.20;79.70;;;;;;5071939;28;20293;-72
2021/04/18 10:30:38;;;;;;;10.47;9.10;;;19.10;78.20;;;;;;5072138;28;20213;-73
2021/04/18 10:33:06;;;;;;;12.43;9.23;;;18.80;78.30;;;;;;5072702;28;20201;-71
2021/04/18 10:35:32;;;;;;;10.40;9.03;;;18.60;80.50;;;;;;5072623;28;20300;-70
2021/04/18 10:37:59;;;;;;;11.13;8.77;;;18.50;80.00;;;;;;5071379;28;20200;-72
2021/04/18 10:40:27;;;;;;;11.37;9.17;;;18.40;79.30;;;;;;5072773;28;20234;-71
2021/04/18 10:42:54;;;;;;;10.67;9.27;;;18.50;81.90;;;;;;5073112;28;20204;-72
2021/04/18 10:45:21;;;;;;;13.43;9.83;;;18.90;79.60;;;;;;5059791;28;20209;-72
2021/04/18 10:47:47;;;;;;;12.90;10.10;;;19.20;79.80;;;;;;5065860;28;20220;-71
2021/04/18 10:50:14;;;;;;;14.67;9.70;;;19.50;80.70;;;;;;5072323;28;20292;-70
2021/04/18 10:52:41;;;;;;;14.90;10.57;;;19.80;81.00;;;;;;5072486;28;20647;-71
2021/04/18 10:55:09;;;;;;;11.80;8.90;;;20.20;78.10;;;;;;5072514;28;20288;-71
2021/04/18 10:57:36;;;;;;;12.15;9.52;;;20.60;74.80;;;;;;5071799;28;20202;-71
2021/04/18 11:00:05;;;;;;;9.85;8.15;;;20.80;70.40;;;;;;5071893;28;20271;-73
2021/04/18 11:02:31;;;;;;;11.95;8.18;;;20.60;65.30;;;;;;5071443;28;20248;-72
2021/04/18 11:04:58;;;;;;;11.77;8.07;;;20.20;66.20;;;;;;5072332;28;20292;-72
2021/04/18 11:07:25;;;;;;;9.48;7.60;;;20.00;67.80;;;;;;5072728;28;20209;-72
2021/04/18 11:09:51;;;;;;;9.13;7.95;;;20.10;65.80;;;;;;5072696;28;20255;-72
2021/04/18 11:12:18;;;;;;;10.07;7.85;;;20.10;65.80;;;;;;5077060;28;20721;-73
2021/04/18 11:14:45;;;;;;;9.40;8.00;;;20.10;66.20;;;;;;5077558;28;20230;-70
2021/04/18 11:17:11;;;;;;;8.80;7.90;;;20.00;65.40;;;;;;5072259;28;20205;-70
2021/04/18 11:19:38;;;;;;;9.35;7.85;;;19.90;63.80;;;;;;5071863;28;20632;-70
2021/04/18 11:22:04;;;;;;;8.73;7.47;;;19.60;63.40;;;;;;5072848;28;20295;-70
2021/04/18 11:24:31;;;;;;;8.27;6.00;;;19.20;64.70;;;;;;5072417;28;20201;-71
2021/04/18 11:26:58;;;;;;;7.22;6.53;;;18.60;63.60;;;;;;5071626;28;20251;-71
2021/04/18 11:29:24;;;;;;;7.30;6.00;;;18.20;65.20;;;;;;5071394;28;20275;-72
2021/04/18 11:31:51;;;;;;;6.83;5.83;;;18.10;67.00;;;;;;5071797;28;20283;-71
2021/04/18 11:34:17;;;;;;;6.40;5.40;;;18.20;67.70;;;;;;5079052;28;20220;-71
2021/04/18 11:36:44;;;;;;;5.90;5.30;;;18.40;66.50;;;;;;5079220;28;20212;-68
2021/04/18 11:39:11;;;;;;;6.40;5.80;;;18.80;65.00;;;;;;5078424;28;20258;-70
2021/04/18 11:41:38;;;;;;;7.63;6.30;;;19.30;64.80;;;;;;5076028;28;20654;-70
2021/04/18 11:44:05;;;;;;;7.13;6.10;;;19.50;63.60;;;;;;5080590;28;20680;-70
2021/04/18 11:46:32;;;;;;;7.28;6.20;;;19.70;63.20;;;;;;5079914;28;20219;-71
2021/04/18 11:48:59;;;;;;;5.13;4.60;;;20.00;62.80;;;;;;5078402;28;20217;-71
2021/04/18 11:51:25;;;;;;;5.25;4.57;;;20.10;59.70;;;;;;5078702;28;20211;-69
2021/04/18 11:53:51;;;;;;;5.03;4.32;;;20.20;58.70;;;;;;5071900;28;20328;-70
2021/04/18 11:56:18;;;;;;;5.40;4.90;;;20.40;57.80;;;;;;5077745;28;20276;-69
2021/04/18 11:58:45;;;;;;;6.82;5.20;;;20.50;57.30;;;;;;5083548;28;20204;-70
2021/04/18 12:01:11;;;;;;;5.72;5.13;;;20.50;56.10;;;;;;5088141;28;20239;-70
2021/04/18 12:03:38;;;;;;;6.00;5.40;;;20.40;56.40;;;;;;5082579;28;20295;-70
2021/04/18 12:06:05;;;;;;;5.28;4.78;;;20.40;55.60;;;;;;5086448;28;20208;-70
2021/04/18 12:08:31;;;;;;;5.43;4.70;;;20.20;56.00;;;;;;5085259;28;20211;-70
2021/04/18 12:10:58;;;;;;;5.50;4.72;;;19.80;56.00;;;;;;5087657;28;20292;-70
2021/04/18 12:13:24;;;;;;;5.20;4.70;;;19.60;56.90;;;;;;5087746;28;20269;-70
2021/04/18 12:15:52;;;;;;;5.22;4.70;;;19.40;56.70;;;;;;5087495;28;20627;-71
2021/04/18 12:18:18;;;;;;;5.60;5.10;;;19.20;57.70;;;;;;5088167;28;20209;-71
2021/04/18 12:20:44;;;;;;;7.50;5.55;;;19.20;58.30;;;;;;5084644;28;20270;-70
2021/04/18 12:23:11;;;;;;;6.20;5.60;;;19.10;58.30;;;;;;5084954;28;20717;-71
2021/04/18 12:25:37;;;;;;;6.05;5.40;;;18.80;58.70;;;;;;5085578;28;20623;-73
2021/04/18 12:28:04;;;;;;;5.97;5.38;;;18.60;59.00;;;;;;5083102;28;20232;-70
2021/04/18 12:30:30;;;;;;;6.22;5.35;;;18.40;59.10;;;;;;5085500;28;20252;-71
2021/04/18 12:32:58;;;;;;;5.27;4.77;;;18.40;59.90;;;;;;5082002;28;20394;-71
2021/04/18 12:35:24;;;;;;;6.13;5.40;;;18.70;60.60;;;;;;5083750;28;20332;-71
2021/04/18 12:37:52;;;;;;;6.88;4.97;;;18.90;59.70;;;;;;5085883;28;20204;-71